Terminal Aerodrome Forecast
Issued by NWS Omaha/Valley, NE

Home | Current Version | Previous Version | Text Only | Print | Product List | Glossary On
Versions: 1 2 3 4 5 6 7 8 9 10 11 12 13 14 15 16 17 18 19 20 21 22 23 24 25 26 27 28 29 30 31 32 33 34 35 36 37 38
000
FTUS43 KOAX 260710 AAA
TAFOMA
TAF AMD
KOMA 260710Z 2607/2706 35010KT P6SM SCT250
     FM260900 36012KT P6SM OVC006
      TEMPO 2609/2611 5SM BR
     FM261100 35013G20KT 5SM BR OVC006
     FM261400 35014G20KT 4SM BR OVC007 PROB30 2620/2624 36013KT 2SM
      -FZDZRA OVC005
     FM270000 35012KT 2SM -SN BR OVC005=

USA.gov is the U.S. government's official web portal to all federal, state and local government web resources and services.